sensor_id;sensor_type;location;lat;lon;timestamp;P1;durP1;ratioP1;P2;durP2;ratioP2
11749;SDS011;5932;42.656;23.236;2022-07-19T00:00:17;2.97;;;2.20;;
11749;SDS011;5932;42.656;23.236;2022-07-19T00:02:44;2.45;;;2.13;;
11749;SDS011;5932;42.656;23.236;2022-07-19T00:05:12;2.72;;;2.10;;
11749;SDS011;5932;42.656;23.236;2022-07-19T00:07:40;3.25;;;2.40;;
11749;SDS011;5932;42.656;23.236;2022-07-19T00:10:08;2.80;;;2.33;;
11749;SDS011;5932;42.656;23.236;2022-07-19T00:12:36;2.65;;;2.10;;
11749;SDS011;5932;42.656;23.236;2022-07-19T00:15:06;3.08;;;2.25;;
11749;SDS011;5932;42.656;23.236;2022-07-19T00:17:34;3.10;;;2.15;;
11749;SDS011;5932;42.656;23.236;2022-07-19T00:20:05;3.05;;;2.30;;
11749;SDS011;5932;42.656;23.236;2022-07-19T00:22:32;3.53;;;2.40;;
11749;SDS011;5932;42.656;23.236;2022-07-19T00:24:59;2.70;;;1.80;;
11749;SDS011;5932;42.656;23.236;2022-07-19T00:27:26;5.53;;;2.58;;
11749;SDS011;5932;42.656;23.236;2022-07-19T00:29:53;7.85;;;2.92;;
11749;SDS011;5932;42.656;23.236;2022-07-19T00:32:21;2.75;;;2.47;;
11749;SDS011;5932;42.656;23.236;2022-07-19T00:34:49;2.75;;;2.38;;
11749;SDS011;5932;42.656;23.236;2022-07-19T00:37:15;2.80;;;2.58;;
11749;SDS011;5932;42.656;23.236;2022-07-19T00:39:43;3.30;;;3.00;;
11749;SDS011;5932;42.656;23.236;2022-07-19T00:42:10;3.85;;;2.70;;
11749;SDS011;5932;42.656;23.236;2022-07-19T00:44:40;3.65;;;2.70;;
11749;SDS011;5932;42.656;23.236;2022-07-19T00:47:07;3.25;;;3.00;;
11749;SDS011;5932;42.656;23.236;2022-07-19T00:49:35;4.35;;;3.35;;
11749;SDS011;5932;42.656;23.236;2022-07-19T00:52:02;3.88;;;3.15;;
11749;SDS011;5932;42.656;23.236;2022-07-19T00:54:30;3.90;;;3.30;;
11749;SDS011;5932;42.656;23.236;2022-07-19T00:57:00;3.50;;;3.20;;
11749;SDS011;5932;42.656;23.236;2022-07-19T00:59:29;3.95;;;3.42;;
11749;SDS011;5932;42.656;23.236;2022-07-19T01:01:58;4.05;;;3.65;;
11749;SDS011;5932;42.656;23.236;2022-07-19T01:04:25;5.85;;;3.50;;
11749;SDS011;5932;42.656;23.236;2022-07-19T01:06:55;3.88;;;3.20;;
11749;SDS011;5932;42.656;23.236;2022-07-19T01:09:22;5.57;;;3.88;;
11749;SDS011;5932;42.656;23.236;2022-07-19T01:11:48;3.47;;;3.17;;
11749;SDS011;5932;42.656;23.236;2022-07-19T01:14:16;5.80;;;3.42;;
11749;SDS011;5932;42.656;23.236;2022-07-19T01:16:43;5.82;;;3.47;;
11749;SDS011;5932;42.656;23.236;2022-07-19T01:19:10;5.15;;;3.67;;
11749;SDS011;5932;42.656;23.236;2022-07-19T01:21:40;4.32;;;3.80;;
11749;SDS011;5932;42.656;23.236;2022-07-19T01:24:07;4.53;;;4.07;;
11749;SDS011;5932;42.656;23.236;2022-07-19T01:26:34;4.88;;;3.83;;
11749;SDS011;5932;42.656;23.236;2022-07-19T01:29:01;4.45;;;4.05;;
11749;SDS011;5932;42.656;23.236;2022-07-19T01:31:28;3.67;;;3.38;;
11749;SDS011;5932;42.656;23.236;2022-07-19T01:33:55;3.95;;;3.35;;
11749;SDS011;5932;42.656;23.236;2022-07-19T01:36:21;5.30;;;3.33;;
11749;SDS011;5932;42.656;23.236;2022-07-19T01:38:50;3.72;;;3.33;;
11749;SDS011;5932;42.656;23.236;2022-07-19T01:41:17;5.50;;;3.25;;
11749;SDS011;5932;42.656;23.236;2022-07-19T01:43:44;4.07;;;3.20;;
11749;SDS011;5932;42.656;23.236;2022-07-19T01:46:11;4.03;;;3.15;;
11749;SDS011;5932;42.656;23.236;2022-07-19T01:48:38;6.07;;;3.22;;
11749;SDS011;5932;42.656;23.236;2022-07-19T01:51:04;4.05;;;3.17;;
11749;SDS011;5932;42.656;23.236;2022-07-19T01:53:31;3.40;;;3.10;;
11749;SDS011;5932;42.656;23.236;2022-07-19T01:55:59;3.28;;;2.95;;
11749;SDS011;5932;42.656;23.236;2022-07-19T01:58:29;3.92;;;3.40;;
11749;SDS011;5932;42.656;23.236;2022-07-19T02:00:56;6.53;;;3.30;;
11749;SDS011;5932;42.656;23.236;2022-07-19T02:03:23;3.58;;;3.28;;
11749;SDS011;5932;42.656;23.236;2022-07-19T02:05:50;3.30;;;3.00;;
11749;SDS011;5932;42.656;23.236;2022-07-19T02:08:16;5.10;;;3.05;;
11749;SDS011;5932;42.656;23.236;2022-07-19T02:10:43;3.63;;;3.30;;
11749;SDS011;5932;42.656;23.236;2022-07-19T02:13:11;3.53;;;2.92;;
11749;SDS011;5932;42.656;23.236;2022-07-19T02:15:38;3.35;;;2.97;;
11749;SDS011;5932;42.656;23.236;2022-07-19T02:18:05;4.03;;;2.97;;
11749;SDS011;5932;42.656;23.236;2022-07-19T02:20:32;3.63;;;3.03;;
11749;SDS011;5932;42.656;23.236;2022-07-19T02:22:59;4.93;;;3.30;;
11749;SDS011;5932;42.656;23.236;2022-07-19T02:25:25;3.30;;;3.00;;
11749;SDS011;5932;42.656;23.236;2022-07-19T02:27:53;3.35;;;3.10;;
11749;SDS011;5932;42.656;23.236;2022-07-19T02:30:22;3.22;;;3.00;;
11749;SDS011;5932;42.656;23.236;2022-07-19T02:32:48;4.25;;;3.25;;
11749;SDS011;5932;42.656;23.236;2022-07-19T02:35:15;4.00;;;3.60;;
11749;SDS011;5932;42.656;23.236;2022-07-19T02:37:43;3.72;;;3.33;;
11749;SDS011;5932;42.656;23.236;2022-07-19T02:40:10;5.30;;;3.25;;
11749;SDS011;5932;42.656;23.236;2022-07-19T02:42:37;5.00;;;3.70;;
11749;SDS011;5932;42.656;23.236;2022-07-19T02:45:05;4.25;;;3.17;;
11749;SDS011;5932;42.656;23.236;2022-07-19T02:47:34;4.20;;;3.25;;
11749;SDS011;5932;42.656;23.236;2022-07-19T02:50:00;3.33;;;3.03;;
11749;SDS011;5932;42.656;23.236;2022-07-19T02:52:28;4.25;;;3.47;;
11749;SDS011;5932;42.656;23.236;2022-07-19T02:54:55;3.83;;;3.53;;
11749;SDS011;5932;42.656;23.236;2022-07-19T02:57:22;4.00;;;3.20;;
11749;SDS011;5932;42.656;23.236;2022-07-19T02:59:49;4.22;;;3.22;;
11749;SDS011;5932;42.656;23.236;2022-07-19T03:02:16;3.60;;;3.30;;
11749;SDS011;5932;42.656;23.236;2022-07-19T03:04:44;4.80;;;3.50;;
11749;SDS011;5932;42.656;23.236;2022-07-19T03:07:11;4.40;;;3.40;;
11749;SDS011;5932;42.656;23.236;2022-07-19T03:09:38;6.55;;;3.10;;
11749;SDS011;5932;42.656;23.236;2022-07-19T03:12:05;3.60;;;3.28;;
11749;SDS011;5932;42.656;23.236;2022-07-19T03:14:32;3.42;;;3.13;;
11749;SDS011;5932;42.656;23.236;2022-07-19T03:16:59;4.00;;;2.90;;
11749;SDS011;5932;42.656;23.236;2022-07-19T03:19:26;5.43;;;3.30;;
11749;SDS011;5932;42.656;23.236;2022-07-19T03:21:54;3.30;;;2.80;;
11749;SDS011;5932;42.656;23.236;2022-07-19T03:24:21;3.72;;;2.72;;
11749;SDS011;5932;42.656;23.236;2022-07-19T03:26:48;3.22;;;2.83;;
11749;SDS011;5932;42.656;23.236;2022-07-19T03:29:15;3.80;;;3.10;;
11749;SDS011;5932;42.656;23.236;2022-07-19T03:31:41;3.55;;;2.80;;
11749;SDS011;5932;42.656;23.236;2022-07-19T03:34:08;4.72;;;2.88;;
11749;SDS011;5932;42.656;23.236;2022-07-19T03:36:35;3.10;;;2.55;;
11749;SDS011;5932;42.656;23.236;2022-07-19T03:39:03;3.13;;;2.83;;
11749;SDS011;5932;42.656;23.236;2022-07-19T03:41:30;2.85;;;2.65;;
11749;SDS011;5932;42.656;23.236;2022-07-19T03:43:57;3.58;;;2.83;;
11749;SDS011;5932;42.656;23.236;2022-07-19T03:46:24;3.10;;;2.70;;
11749;SDS011;5932;42.656;23.236;2022-07-19T03:48:51;3.53;;;2.67;;
11749;SDS011;5932;42.656;23.236;2022-07-19T03:51:18;3.33;;;2.80;;
11749;SDS011;5932;42.656;23.236;2022-07-19T03:53:44;3.60;;;2.65;;
11749;SDS011;5932;42.656;23.236;2022-07-19T03:56:13;2.40;;;2.20;;
11749;SDS011;5932;42.656;23.236;2022-07-19T03:58:40;3.03;;;2.50;;
11749;SDS011;5932;42.656;23.236;2022-07-19T04:01:07;2.75;;;2.40;;
11749;SDS011;5932;42.656;23.236;2022-07-19T04:03:35;2.58;;;2.38;;
11749;SDS011;5932;42.656;23.236;2022-07-19T04:06:03;3.55;;;2.30;;
11749;SDS011;5932;42.656;23.236;2022-07-19T04:08:30;2.70;;;2.50;;
11749;SDS011;5932;42.656;23.236;2022-07-19T04:10:56;5.80;;;2.80;;
11749;SDS011;5932;42.656;23.236;2022-07-19T04:13:25;4.22;;;3.00;;
11749;SDS011;5932;42.656;23.236;2022-07-19T04:15:52;3.40;;;2.58;;
11749;SDS011;5932;42.656;23.236;2022-07-19T04:18:19;4.00;;;2.67;;
11749;SDS011;5932;42.656;23.236;2022-07-19T04:20:46;4.10;;;2.90;;
11749;SDS011;5932;42.656;23.236;2022-07-19T04:23:12;4.72;;;3.28;;
11749;SDS011;5932;42.656;23.236;2022-07-19T04:25:39;5.25;;;3.55;;
11749;SDS011;5932;42.656;23.236;2022-07-19T04:28:06;5.43;;;2.97;;
11749;SDS011;5932;42.656;23.236;2022-07-19T04:30:34;3.47;;;3.08;;
11749;SDS011;5932;42.656;23.236;2022-07-19T04:33:01;4.53;;;2.90;;
11749;SDS011;5932;42.656;23.236;2022-07-19T04:35:28;3.50;;;3.13;;
11749;SDS011;5932;42.656;23.236;2022-07-19T04:37:55;3.35;;;2.70;;
11749;SDS011;5932;42.656;23.236;2022-07-19T04:40:22;6.32;;;3.08;;
11749;SDS011;5932;42.656;23.236;2022-07-19T04:42:48;5.55;;;2.97;;
11749;SDS011;5932;42.656;23.236;2022-07-19T04:45:15;3.97;;;3.10;;
11749;SDS011;5932;42.656;23.236;2022-07-19T04:47:43;3.63;;;2.45;;
11749;SDS011;5932;42.656;23.236;2022-07-19T04:50:10;2.65;;;2.35;;
11749;SDS011;5932;42.656;23.236;2022-07-19T04:52:37;5.63;;;2.33;;
11749;SDS011;5932;42.656;23.236;2022-07-19T04:55:04;2.85;;;2.58;;
11749;SDS011;5932;42.656;23.236;2022-07-19T04:57:31;2.35;;;2.15;;
11749;SDS011;5932;42.656;23.236;2022-07-19T04:59:58;3.17;;;2.17;;
11749;SDS011;5932;42.656;23.236;2022-07-19T05:02:25;4.88;;;2.28;;
11749;SDS011;5932;42.656;23.236;2022-07-19T05:04:53;2.60;;;2.00;;
11749;SDS011;5932;42.656;23.236;2022-07-19T05:07:20;3.13;;;2.15;;
11749;SDS011;5932;42.656;23.236;2022-07-19T05:09:46;6.22;;;2.10;;
11749;SDS011;5932;42.656;23.236;2022-07-19T05:12:13;5.90;;;2.08;;
11749;SDS011;5932;42.656;23.236;2022-07-19T05:14:40;2.17;;;1.85;;
11749;SDS011;5932;42.656;23.236;2022-07-19T05:17:07;9.10;;;2.13;;
11749;SDS011;5932;42.656;23.236;2022-07-19T05:19:34;3.40;;;2.05;;
11749;SDS011;5932;42.656;23.236;2022-07-19T05:22:02;2.22;;;2.00;;
11749;SDS011;5932;42.656;23.236;2022-07-19T05:24:29;5.20;;;2.10;;
11749;SDS011;5932;42.656;23.236;2022-07-19T05:26:56;2.15;;;1.92;;
11749;SDS011;5932;42.656;23.236;2022-07-19T05:29:22;5.43;;;2.33;;
11749;SDS011;5932;42.656;23.236;2022-07-19T05:31:49;2.97;;;2.10;;
11749;SDS011;5932;42.656;23.236;2022-07-19T05:34:16;4.65;;;2.03;;
11749;SDS011;5932;42.656;23.236;2022-07-19T05:36:43;3.60;;;2.33;;
11749;SDS011;5932;42.656;23.236;2022-07-19T05:39:11;4.90;;;2.30;;
11749;SDS011;5932;42.656;23.236;2022-07-19T05:41:38;5.88;;;2.40;;
11749;SDS011;5932;42.656;23.236;2022-07-19T05:44:04;9.95;;;2.00;;
11749;SDS011;5932;42.656;23.236;2022-07-19T05:46:31;3.03;;;1.95;;
11749;SDS011;5932;42.656;23.236;2022-07-19T05:48:58;4.93;;;2.08;;
11749;SDS011;5932;42.656;23.236;2022-07-19T05:51:25;6.70;;;2.42;;
11749;SDS011;5932;42.656;23.236;2022-07-19T05:53:51;3.08;;;2.25;;
11749;SDS011;5932;42.656;23.236;2022-07-19T05:56:20;5.07;;;2.20;;
11749;SDS011;5932;42.656;23.236;2022-07-19T05:58:46;7.60;;;2.20;;
11749;SDS011;5932;42.656;23.236;2022-07-19T06:01:13;4.82;;;2.20;;
11749;SDS011;5932;42.656;23.236;2022-07-19T06:03:47;3.85;;;1.90;;
11749;SDS011;5932;42.656;23.236;2022-07-19T06:06:15;4.47;;;1.95;;
11749;SDS011;5932;42.656;23.236;2022-07-19T06:08:42;3.53;;;2.08;;
11749;SDS011;5932;42.656;23.236;2022-07-19T06:11:10;7.82;;;1.88;;
11749;SDS011;5932;42.656;23.236;2022-07-19T06:13:38;5.18;;;2.00;;
11749;SDS011;5932;42.656;23.236;2022-07-19T06:16:05;3.65;;;1.98;;
11749;SDS011;5932;42.656;23.236;2022-07-19T06:18:33;6.00;;;2.00;;
11749;SDS011;5932;42.656;23.236;2022-07-19T06:21:00;3.45;;;2.03;;
11749;SDS011;5932;42.656;23.236;2022-07-19T06:23:27;6.22;;;1.85;;
11749;SDS011;5932;42.656;23.236;2022-07-19T06:25:54;2.88;;;1.85;;
11749;SDS011;5932;42.656;23.236;2022-07-19T06:28:21;4.53;;;2.20;;
11749;SDS011;5932;42.656;23.236;2022-07-19T06:30:49;5.80;;;1.95;;
11749;SDS011;5932;42.656;23.236;2022-07-19T06:33:16;5.47;;;2.40;;
11749;SDS011;5932;42.656;23.236;2022-07-19T06:35:43;2.83;;;2.10;;
11749;SDS011;5932;42.656;23.236;2022-07-19T06:38:09;6.05;;;2.13;;
11749;SDS011;5932;42.656;23.236;2022-07-19T06:40:36;4.47;;;2.13;;
11749;SDS011;5932;42.656;23.236;2022-07-19T06:43:03;5.90;;;2.30;;
11749;SDS011;5932;42.656;23.236;2022-07-19T06:45:30;5.38;;;1.85;;
11749;SDS011;5932;42.656;23.236;2022-07-19T06:47:58;5.97;;;2.15;;
11749;SDS011;5932;42.656;23.236;2022-07-19T06:50:25;4.30;;;2.05;;
11749;SDS011;5932;42.656;23.236;2022-07-19T06:52:52;5.07;;;2.25;;
11749;SDS011;5932;42.656;23.236;2022-07-19T06:55:19;4.88;;;2.20;;
11749;SDS011;5932;42.656;23.236;2022-07-19T06:57:45;3.53;;;2.30;;
11749;SDS011;5932;42.656;23.236;2022-07-19T07:00:13;2.50;;;2.30;;
11749;SDS011;5932;42.656;23.236;2022-07-19T07:02:40;4.75;;;2.10;;
11749;SDS011;5932;42.656;23.236;2022-07-19T07:05:09;3.03;;;2.15;;
11749;SDS011;5932;42.656;23.236;2022-07-19T07:07:38;4.07;;;2.10;;
11749;SDS011;5932;42.656;23.236;2022-07-19T07:10:06;4.93;;;1.88;;
11749;SDS011;5932;42.656;23.236;2022-07-19T07:12:34;4.18;;;2.10;;
11749;SDS011;5932;42.656;23.236;2022-07-19T07:15:05;7.50;;;2.08;;
11749;SDS011;5932;42.656;23.236;2022-07-19T07:17:33;3.83;;;2.30;;
11749;SDS011;5932;42.656;23.236;2022-07-19T07:20:00;6.35;;;2.28;;
11749;SDS011;5932;42.656;23.236;2022-07-19T07:22:28;7.53;;;2.20;;
11749;SDS011;5932;42.656;23.236;2022-07-19T07:24:55;9.07;;;2.15;;
11749;SDS011;5932;42.656;23.236;2022-07-19T07:27:22;6.40;;;2.35;;
11749;SDS011;5932;42.656;23.236;2022-07-19T07:29:49;5.60;;;2.00;;
11749;SDS011;5932;42.656;23.236;2022-07-19T07:32:16;8.30;;;1.80;;
11749;SDS011;5932;42.656;23.236;2022-07-19T07:34:44;2.70;;;2.00;;
11749;SDS011;5932;42.656;23.236;2022-07-19T07:37:11;3.90;;;1.90;;
11749;SDS011;5932;42.656;23.236;2022-07-19T07:39:39;4.28;;;1.73;;
11749;SDS011;5932;42.656;23.236;2022-07-19T07:42:06;2.85;;;1.60;;
11749;SDS011;5932;42.656;23.236;2022-07-19T07:44:32;6.18;;;1.83;;
11749;SDS011;5932;42.656;23.236;2022-07-19T07:46:59;4.82;;;2.40;;
11749;SDS011;5932;42.656;23.236;2022-07-19T07:49:26;2.97;;;1.65;;
11749;SDS011;5932;42.656;23.236;2022-07-19T07:51:55;3.10;;;1.75;;
11749;SDS011;5932;42.656;23.236;2022-07-19T07:54:22;3.10;;;1.60;;
11749;SDS011;5932;42.656;23.236;2022-07-19T07:56:50;2.28;;;1.75;;
11749;SDS011;5932;42.656;23.236;2022-07-19T07:59:17;2.38;;;1.60;;
11749;SDS011;5932;42.656;23.236;2022-07-19T08:01:43;4.00;;;1.55;;
11749;SDS011;5932;42.656;23.236;2022-07-19T08:04:10;4.80;;;2.05;;
11749;SDS011;5932;42.656;23.236;2022-07-19T08:06:37;5.03;;;1.73;;
11749;SDS011;5932;42.656;23.236;2022-07-19T08:09:04;3.55;;;1.63;;
11749;SDS011;5932;42.656;23.236;2022-07-19T08:11:31;2.85;;;1.70;;
11749;SDS011;5932;42.656;23.236;2022-07-19T08:13:59;3.95;;;1.60;;
11749;SDS011;5932;42.656;23.236;2022-07-19T08:16:26;2.75;;;1.52;;
11749;SDS011;5932;42.656;23.236;2022-07-19T08:18:53;2.60;;;1.50;;
11749;SDS011;5932;42.656;23.236;2022-07-19T08:21:20;2.60;;;1.50;;
11749;SDS011;5932;42.656;23.236;2022-07-19T08:23:46;5.20;;;1.73;;
11749;SDS011;5932;42.656;23.236;2022-07-19T08:26:13;4.05;;;1.63;;
11749;SDS011;5932;42.656;23.236;2022-07-19T08:28:40;3.85;;;1.50;;
11749;SDS011;5932;42.656;23.236;2022-07-19T08:31:08;3.00;;;1.65;;
11749;SDS011;5932;42.656;23.236;2022-07-19T08:33:36;4.00;;;1.60;;
11749;SDS011;5932;42.656;23.236;2022-07-19T08:36:03;1.55;;;1.40;;
11749;SDS011;5932;42.656;23.236;2022-07-19T08:38:30;3.15;;;1.58;;
11749;SDS011;5932;42.656;23.236;2022-07-19T08:40:57;2.65;;;1.63;;
11749;SDS011;5932;42.656;23.236;2022-07-19T08:43:26;1.92;;;1.50;;
11749;SDS011;5932;42.656;23.236;2022-07-19T08:45:53;4.40;;;1.60;;
11749;SDS011;5932;42.656;23.236;2022-07-19T08:48:21;2.85;;;1.70;;
11749;SDS011;5932;42.656;23.236;2022-07-19T08:50:49;2.65;;;1.67;;
11749;SDS011;5932;42.656;23.236;2022-07-19T08:53:16;7.53;;;1.70;;
11749;SDS011;5932;42.656;23.236;2022-07-19T08:55:44;4.18;;;1.67;;
11749;SDS011;5932;42.656;23.236;2022-07-19T08:58:11;3.90;;;1.50;;
11749;SDS011;5932;42.656;23.236;2022-07-19T09:00:37;2.03;;;1.65;;
11749;SDS011;5932;42.656;23.236;2022-07-19T09:03:04;4.10;;;1.58;;
11749;SDS011;5932;42.656;23.236;2022-07-19T09:05:34;3.85;;;1.73;;
11749;SDS011;5932;42.656;23.236;2022-07-19T09:08:06;3.60;;;1.60;;
11749;SDS011;5932;42.656;23.236;2022-07-19T09:10:35;1.63;;;1.38;;
11749;SDS011;5932;42.656;23.236;2022-07-19T09:13:06;3.72;;;1.70;;
11749;SDS011;5932;42.656;23.236;2022-07-19T09:15:38;4.47;;;1.50;;
11749;SDS011;5932;42.656;23.236;2022-07-19T09:18:10;2.83;;;1.60;;
11749;SDS011;5932;42.656;23.236;2022-07-19T09:20:40;2.25;;;1.40;;
11749;SDS011;5932;42.656;23.236;2022-07-19T09:23:07;3.05;;;1.63;;
11749;SDS011;5932;42.656;23.236;2022-07-19T09:25:35;2.35;;;1.50;;
11749;SDS011;5932;42.656;23.236;2022-07-19T09:28:02;2.42;;;1.42;;
11749;SDS011;5932;42.656;23.236;2022-07-19T09:30:33;3.72;;;1.80;;
11749;SDS011;5932;42.656;23.236;2022-07-19T09:33:06;6.57;;;1.50;;
11749;SDS011;5932;42.656;23.236;2022-07-19T09:35:35;4.35;;;1.60;;
11749;SDS011;5932;42.656;23.236;2022-07-19T09:38:24;2.08;;;1.35;;
11749;SDS011;5932;42.656;23.236;2022-07-19T09:40:52;2.13;;;1.63;;
11749;SDS011;5932;42.656;23.236;2022-07-19T09:43:20;2.85;;;1.40;;
11749;SDS011;5932;42.656;23.236;2022-07-19T09:45:51;2.22;;;1.40;;
11749;SDS011;5932;42.656;23.236;2022-07-19T09:48:17;3.95;;;1.63;;
11749;SDS011;5932;42.656;23.236;2022-07-19T09:50:45;1.40;;;1.30;;
11749;SDS011;5932;42.656;23.236;2022-07-19T09:53:14;4.55;;;1.50;;
11749;SDS011;5932;42.656;23.236;2022-07-19T09:55:43;2.42;;;1.30;;
11749;SDS011;5932;42.656;23.236;2022-07-19T09:58:10;1.88;;;1.40;;
11749;SDS011;5932;42.656;23.236;2022-07-19T10:00:38;3.35;;;1.50;;
11749;SDS011;5932;42.656;23.236;2022-07-19T10:03:05;3.00;;;1.20;;
11749;SDS011;5932;42.656;23.236;2022-07-19T10:05:35;1.83;;;1.25;;
11749;SDS011;5932;42.656;23.236;2022-07-19T10:08:03;2.63;;;1.25;;
11749;SDS011;5932;42.656;23.236;2022-07-19T10:10:31;2.75;;;1.50;;
11749;SDS011;5932;42.656;23.236;2022-07-19T10:12:59;4.22;;;1.50;;
11749;SDS011;5932;42.656;23.236;2022-07-19T10:15:28;1.38;;;1.27;;
11749;SDS011;5932;42.656;23.236;2022-07-19T10:18:08;3.17;;;1.25;;
11749;SDS011;5932;42.656;23.236;2022-07-19T10:20:37;2.45;;;1.70;;
11749;SDS011;5932;42.656;23.236;2022-07-19T10:23:08;3.65;;;1.50;;
11749;SDS011;5932;42.656;23.236;2022-07-19T10:25:38;2.08;;;1.40;;
11749;SDS011;5932;42.656;23.236;2022-07-19T10:30:54;3.03;;;1.45;;
11749;SDS011;5932;42.656;23.236;2022-07-19T10:33:31;1.95;;;1.40;;
11749;SDS011;5932;42.656;23.236;2022-07-19T10:42:04;2.60;;;1.60;;
11749;SDS011;5932;42.656;23.236;2022-07-19T10:50:41;3.10;;;1.60;;
11749;SDS011;5932;42.656;23.236;2022-07-19T10:56:36;5.22;;;1.52;;
11749;SDS011;5932;42.656;23.236;2022-07-19T10:59:07;2.45;;;1.50;;
11749;SDS011;5932;42.656;23.236;2022-07-19T11:01:38;5.05;;;1.73;;
11749;SDS011;5932;42.656;23.236;2022-07-19T11:04:25;4.05;;;1.60;;
11749;SDS011;5932;42.656;23.236;2022-07-19T11:09:47;2.20;;;1.70;;
11749;SDS011;5932;42.656;23.236;2022-07-19T11:12:23;4.10;;;1.70;;
11749;SDS011;5932;42.656;23.236;2022-07-19T11:14:51;2.03;;;1.60;;
11749;SDS011;5932;42.656;23.236;2022-07-19T11:17:19;4.68;;;1.55;;
11749;SDS011;5932;42.656;23.236;2022-07-19T11:19:56;3.25;;;1.70;;
11749;SDS011;5932;42.656;23.236;2022-07-19T11:22:26;3.33;;;1.50;;
11749;SDS011;5932;42.656;23.236;2022-07-19T11:24:58;2.75;;;1.55;;
11749;SDS011;5932;42.656;23.236;2022-07-19T11:27:25;1.65;;;1.40;;
11749;SDS011;5932;42.656;23.236;2022-07-19T11:29:52;1.65;;;1.50;;
11749;SDS011;5932;42.656;23.236;2022-07-19T11:32:21;3.15;;;1.70;;
11749;SDS011;5932;42.656;23.236;2022-07-19T11:34:55;6.50;;;1.70;;
11749;SDS011;5932;42.656;23.236;2022-07-19T11:37:23;1.63;;;1.42;;
11749;SDS011;5932;42.656;23.236;2022-07-19T11:39:51;1.95;;;1.60;;
11749;SDS011;5932;42.656;23.236;2022-07-19T11:42:26;5.53;;;1.60;;
11749;SDS011;5932;42.656;23.236;2022-07-19T11:44:54;5.07;;;1.50;;
11749;SDS011;5932;42.656;23.236;2022-07-19T11:47:22;2.20;;;1.60;;
11749;SDS011;5932;42.656;23.236;2022-07-19T11:49:49;2.67;;;1.80;;
11749;SDS011;5932;42.656;23.236;2022-07-19T11:52:16;4.10;;;1.80;;
11749;SDS011;5932;42.656;23.236;2022-07-19T11:54:57;3.00;;;1.90;;
11749;SDS011;5932;42.656;23.236;2022-07-19T11:57:24;3.65;;;1.77;;
11749;SDS011;5932;42.656;23.236;2022-07-19T11:59:51;3.45;;;1.80;;
11749;SDS011;5932;42.656;23.236;2022-07-19T12:02:18;3.92;;;1.63;;
11749;SDS011;5932;42.656;23.236;2022-07-19T12:04:46;2.90;;;1.63;;
11749;SDS011;5932;42.656;23.236;2022-07-19T12:07:15;2.08;;;1.52;;
11749;SDS011;5932;42.656;23.236;2022-07-19T12:09:42;1.80;;;1.50;;
11749;SDS011;5932;42.656;23.236;2022-07-19T12:12:13;7.13;;;1.67;;
11749;SDS011;5932;42.656;23.236;2022-07-19T12:14:41;3.75;;;1.83;;
11749;SDS011;5932;42.656;23.236;2022-07-19T12:17:09;3.08;;;1.50;;
11749;SDS011;5932;42.656;23.236;2022-07-19T12:19:37;1.70;;;1.60;;
11749;SDS011;5932;42.656;23.236;2022-07-19T12:22:06;3.50;;;1.63;;
11749;SDS011;5932;42.656;23.236;2022-07-19T12:24:52;1.77;;;1.58;;
11749;SDS011;5932;42.656;23.236;2022-07-19T12:27:19;2.65;;;1.60;;
11749;SDS011;5932;42.656;23.236;2022-07-19T12:29:47;1.80;;;1.50;;
11749;SDS011;5932;42.656;23.236;2022-07-19T12:32:16;3.53;;;1.55;;
11749;SDS011;5932;42.656;23.236;2022-07-19T12:34:55;3.08;;;1.40;;
11749;SDS011;5932;42.656;23.236;2022-07-19T12:37:25;4.03;;;1.35;;
11749;SDS011;5932;42.656;23.236;2022-07-19T12:40:03;1.58;;;1.40;;
11749;SDS011;5932;42.656;23.236;2022-07-19T12:42:40;4.88;;;1.67;;
11749;SDS011;5932;42.656;23.236;2022-07-19T12:45:09;4.40;;;1.83;;
11749;SDS011;5932;42.656;23.236;2022-07-19T12:47:38;2.90;;;1.52;;
11749;SDS011;5932;42.656;23.236;2022-07-19T12:50:06;2.90;;;1.45;;
11749;SDS011;5932;42.656;23.236;2022-07-19T12:52:36;3.17;;;1.55;;
11749;SDS011;5932;42.656;23.236;2022-07-19T12:55:03;4.32;;;1.70;;
11749;SDS011;5932;42.656;23.236;2022-07-19T12:57:30;2.05;;;1.55;;
11749;SDS011;5932;42.656;23.236;2022-07-19T12:59:59;3.13;;;1.42;;
11749;SDS011;5932;42.656;23.236;2022-07-19T13:02:26;3.88;;;1.35;;
11749;SDS011;5932;42.656;23.236;2022-07-19T13:04:52;3.47;;;1.70;;
11749;SDS011;5932;42.656;23.236;2022-07-19T13:07:19;2.78;;;1.70;;
11749;SDS011;5932;42.656;23.236;2022-07-19T13:09:48;4.00;;;1.35;;
11749;SDS011;5932;42.656;23.236;2022-07-19T13:12:15;2.25;;;1.50;;
11749;SDS011;5932;42.656;23.236;2022-07-19T13:14:42;1.83;;;1.30;;
11749;SDS011;5932;42.656;23.236;2022-07-19T13:17:08;5.63;;;1.60;;
11749;SDS011;5932;42.656;23.236;2022-07-19T13:19:36;7.72;;;1.52;;
11749;SDS011;5932;42.656;23.236;2022-07-19T13:22:04;3.05;;;1.52;;
11749;SDS011;5932;42.656;23.236;2022-07-19T13:24:31;1.77;;;1.48;;
11749;SDS011;5932;42.656;23.236;2022-07-19T13:27:00;5.30;;;1.58;;
11749;SDS011;5932;42.656;23.236;2022-07-19T13:29:27;5.53;;;1.40;;
11749;SDS011;5932;42.656;23.236;2022-07-19T13:31:53;2.45;;;1.50;;
11749;SDS011;5932;42.656;23.236;2022-07-19T13:34:20;2.20;;;1.75;;
11749;SDS011;5932;42.656;23.236;2022-07-19T13:36:48;3.38;;;1.40;;
11749;SDS011;5932;42.656;23.236;2022-07-19T13:39:15;3.45;;;1.50;;
11749;SDS011;5932;42.656;23.236;2022-07-19T13:41:42;2.20;;;1.50;;
11749;SDS011;5932;42.656;23.236;2022-07-19T13:44:10;1.50;;;1.40;;
11749;SDS011;5932;42.656;23.236;2022-07-19T13:46:36;3.13;;;1.50;;
11749;SDS011;5932;42.656;23.236;2022-07-19T13:49:03;2.78;;;1.42;;
11749;SDS011;5932;42.656;23.236;2022-07-19T13:51:30;1.50;;;1.40;;
11749;SDS011;5932;42.656;23.236;2022-07-19T13:53:57;5.63;;;1.80;;
11749;SDS011;5932;42.656;23.236;2022-07-19T13:56:24;3.03;;;1.30;;
11749;SDS011;5932;42.656;23.236;2022-07-19T13:58:51;3.70;;;1.60;;
11749;SDS011;5932;42.656;23.236;2022-07-19T14:01:19;2.28;;;1.50;;
11749;SDS011;5932;42.656;23.236;2022-07-19T14:03:46;1.55;;;1.40;;
11749;SDS011;5932;42.656;23.236;2022-07-19T14:06:13;3.67;;;1.40;;
11749;SDS011;5932;42.656;23.236;2022-07-19T14:08:40;1.75;;;1.50;;
11749;SDS011;5932;42.656;23.236;2022-07-19T14:11:07;5.78;;;1.40;;
11749;SDS011;5932;42.656;23.236;2022-07-19T14:13:34;1.80;;;1.42;;
11749;SDS011;5932;42.656;23.236;2022-07-19T14:16:01;2.75;;;1.40;;
11749;SDS011;5932;42.656;23.236;2022-07-19T14:18:29;2.45;;;1.30;;
11749;SDS011;5932;42.656;23.236;2022-07-19T14:20:56;2.58;;;1.30;;
11749;SDS011;5932;42.656;23.236;2022-07-19T14:23:23;3.75;;;1.67;;
11749;SDS011;5932;42.656;23.236;2022-07-19T14:25:50;1.48;;;1.38;;
11749;SDS011;5932;42.656;23.236;2022-07-19T14:28:16;6.03;;;1.25;;
11749;SDS011;5932;42.656;23.236;2022-07-19T14:30:43;2.40;;;1.40;;
11749;SDS011;5932;42.656;23.236;2022-07-19T14:33:10;3.85;;;1.27;;
11749;SDS011;5932;42.656;23.236;2022-07-19T14:35:39;1.40;;;1.30;;
11749;SDS011;5932;42.656;23.236;2022-07-19T14:38:06;6.90;;;1.40;;
11749;SDS011;5932;42.656;23.236;2022-07-19T14:40:32;5.25;;;1.38;;
11749;SDS011;5932;42.656;23.236;2022-07-19T14:43:01;2.70;;;2.00;;
11749;SDS011;5932;42.656;23.236;2022-07-19T14:45:28;3.35;;;1.60;;
11749;SDS011;5932;42.656;23.236;2022-07-19T14:47:54;4.18;;;1.30;;
11749;SDS011;5932;42.656;23.236;2022-07-19T14:50:21;2.20;;;1.63;;
11749;SDS011;5932;42.656;23.236;2022-07-19T14:52:49;2.67;;;1.30;;
11749;SDS011;5932;42.656;23.236;2022-07-19T14:55:17;2.63;;;1.10;;
11749;SDS011;5932;42.656;23.236;2022-07-19T14:57:44;3.35;;;1.17;;
11749;SDS011;5932;42.656;23.236;2022-07-19T15:00:11;4.55;;;1.40;;
11749;SDS011;5932;42.656;23.236;2022-07-19T15:02:38;3.75;;;1.40;;
11749;SDS011;5932;42.656;23.236;2022-07-19T15:05:06;3.53;;;1.40;;
11749;SDS011;5932;42.656;23.236;2022-07-19T15:07:33;3.40;;;1.50;;
11749;SDS011;5932;42.656;23.236;2022-07-19T15:10:04;3.33;;;1.40;;
11749;SDS011;5932;42.656;23.236;2022-07-19T15:12:32;3.47;;;1.83;;